Time;durP1;ratioP1;P1;durP2;ratioP2;P2;SDS_P1;SDS_P2;PMS_P1;PMS_P2;Temp;Humidity;BMP_temperature;BMP_pressure;BME280_temperature;BME280_humidity;BME280_pressure;Samples;Min_cycle;Max_cycle;Signal;HPM_P1;HPM_P2
2022/10/20 00:00:13;;;;;;;39.92;15.05;;;19.40;99.90;;;;;;5037790;28;20025;-75
2022/10/20 00:02:39;;;;;;;29.95;14.52;;;19.40;99.90;;;;;;5033814;28;20037;-75
2022/10/20 00:05:05;;;;;;;36.97;15.85;;;19.30;99.90;;;;;;5038469;28;20018;-76
2022/10/20 00:07:31;;;;;;;32.90;15.15;;;19.30;99.90;;;;;;5038847;28;21106;-75
2022/10/20 00:09:57;;;;;;;31.13;16.60;;;19.30;99.90;;;;;;5037474;28;20039;-76
2022/10/20 00:12:22;;;;;;;29.98;15.50;;;19.30;99.90;;;;;;5036265;28;20061;-76
2022/10/20 00:14:48;;;;;;;49.25;16.95;;;19.20;99.90;;;;;;5037327;28;20088;-77
2022/10/20 00:17:14;;;;;;;42.58;16.85;;;19.20;99.90;;;;;;5036812;28;20064;-77
2022/10/20 00:19:40;;;;;;;44.05;18.30;;;19.20;99.90;;;;;;5035569;28;20026;-76
2022/10/20 00:22:06;;;;;;;28.80;16.50;;;19.10;99.90;;;;;;5038484;28;20033;-76
2022/10/20 00:24:31;;;;;;;36.97;16.65;;;19.10;99.90;;;;;;5038850;28;20032;-75
2022/10/20 00:26:57;;;;;;;36.13;17.58;;;19.20;99.90;;;;;;5036618;28;20049;-76
2022/10/20 00:29:23;;;;;;;37.85;17.17;;;19.10;99.90;;;;;;5038605;28;20021;-75
2022/10/20 00:31:49;;;;;;;30.20;16.05;;;19.10;99.90;;;;;;5038246;28;20401;-76
2022/10/20 00:34:15;;;;;;;30.45;15.18;;;19.10;99.90;;;;;;5043704;28;20047;-76
2022/10/20 00:36:40;;;;;;;28.27;15.32;;;19.00;99.90;;;;;;5038170;28;20497;-76
2022/10/20 00:39:06;;;;;;;32.55;15.88;;;19.00;99.90;;;;;;5038494;28;20029;-76
2022/10/20 00:41:33;;;;;;;45.65;17.50;;;19.00;99.90;;;;;;5037923;28;20052;-76
2022/10/20 00:44:40;;;;;;;39.30;16.50;;;19.00;99.90;;;;;;5038140;28;20043;-75
2022/10/20 00:47:16;;;;;;;42.17;17.05;;;19.00;99.90;;;;;;5036525;28;20053;-76
2022/10/20 00:49:41;;;;;;;37.67;16.67;;;19.00;99.90;;;;;;5036572;28;20057;-76
2022/10/20 00:52:08;;;;;;;36.70;16.63;;;19.00;99.90;;;;;;5036911;28;20036;-78
2022/10/20 00:54:35;;;;;;;42.33;19.05;;;18.90;99.90;;;;;;5037685;28;20021;-76
2022/10/20 00:57:01;;;;;;;33.90;17.27;;;18.90;99.90;;;;;;5037291;28;20033;-76
2022/10/20 00:59:32;;;;;;;34.72;17.48;;;19.00;99.90;;;;;;5036721;28;20054;-77
2022/10/20 01:02:00;;;;;;;38.05;17.90;;;19.00;99.90;;;;;;5037745;28;20109;-76
2022/10/20 01:04:29;;;;;;;34.05;17.48;;;19.00;99.90;;;;;;5037596;28;20489;-76
2022/10/20 01:06:55;;;;;;;46.85;18.55;;;19.00;99.90;;;;;;5037983;28;20026;-76
2022/10/20 01:09:21;;;;;;;39.55;18.73;;;19.00;99.90;;;;;;5035372;28;20025;-76
2022/10/20 01:12:25;;;;;;;41.72;18.10;;;19.00;99.90;;;;;;5036325;28;20054;-76
2022/10/20 01:15:02;;;;;;;44.38;17.20;;;19.00;99.90;;;;;;5037661;28;20049;-76
2022/10/20 01:17:56;;;;;;;43.35;18.30;;;19.00;99.90;;;;;;5037316;28;20032;-77
2022/10/20 01:20:41;;;;;;;42.45;17.70;;;19.00;99.90;;;;;;5052710;28;20068;-76
2022/10/20 01:23:24;;;;;;;40.15;16.88;;;19.00;99.90;;;;;;5037463;28;20040;-76
2022/10/20 01:26:14;;;;;;;32.67;16.17;;;19.00;99.90;;;;;;5035239;28;20389;-76
2022/10/20 01:28:58;;;;;;;43.30;18.52;;;19.00;99.90;;;;;;5036103;28;20026;-76
2022/10/20 01:31:50;;;;;;;35.17;16.63;;;19.00;99.90;;;;;;5035795;28;20049;-76
2022/10/20 01:34:25;;;;;;;36.80;17.33;;;19.00;99.90;;;;;;5034609;28;20382;-76
2022/10/20 01:37:03;;;;;;;31.10;16.45;;;18.90;99.90;;;;;;5036129;28;20026;-76
2022/10/20 01:39:51;;;;;;;42.80;18.48;;;18.90;99.90;;;;;;5037180;28;20048;-76
2022/10/20 01:42:23;;;;;;;44.28;19.92;;;18.80;99.90;;;;;;5035789;28;20033;-76
2022/10/20 01:44:52;;;;;;;44.15;19.17;;;18.80;99.90;;;;;;5037118;28;20021;-76
2022/10/20 01:47:21;;;;;;;39.63;17.95;;;18.80;99.90;;;;;;5036797;28;20028;-76
2022/10/20 01:49:48;;;;;;;38.50;17.88;;;18.80;99.90;;;;;;5036630;28;20064;-77
2022/10/20 01:52:15;;;;;;;39.10;18.73;;;18.70;99.90;;;;;;5035481;28;20025;-77
2022/10/20 01:54:40;;;;;;;46.00;18.92;;;18.70;99.90;;;;;;5026992;28;20116;-77
2022/10/20 01:57:18;;;;;;;43.00;19.45;;;18.70;99.90;;;;;;5030657;28;20064;-76
2022/10/20 02:00:00;;;;;;;32.22;18.50;;;18.70;99.90;;;;;;5036820;28;20036;-76
2022/10/20 02:02:37;;;;;;;37.78;19.38;;;18.70;99.90;;;;;;5036911;28;20017;-76
2022/10/20 02:05:37;;;;;;;44.95;19.90;;;18.70;99.90;;;;;;5036215;28;20489;-76
2022/10/20 02:08:35;;;;;;;39.93;19.07;;;18.60;99.90;;;;;;5029521;28;20073;-76
2022/10/20 02:11:04;;;;;;;36.25;19.30;;;18.60;99.90;;;;;;5027247;28;20777;-76
2022/10/20 02:13:31;;;;;;;46.90;21.02;;;18.60;99.90;;;;;;5036833;28;20090;-77
2022/10/20 02:16:00;;;;;;;48.13;20.13;;;18.60;99.90;;;;;;5035321;28;20059;-77
2022/10/20 02:18:33;;;;;;;35.67;18.77;;;18.60;99.90;;;;;;5036474;28;20033;-77
2022/10/20 02:21:02;;;;;;;46.38;21.48;;;18.60;99.90;;;;;;5037664;28;20070;-77
2022/10/20 02:23:30;;;;;;;39.72;18.95;;;18.60;99.90;;;;;;5038532;28;20030;-76
2022/10/20 02:25:59;;;;;;;30.52;18.17;;;18.60;99.90;;;;;;5036656;28;20028;-76
2022/10/20 02:28:25;;;;;;;38.33;18.35;;;18.60;99.90;;;;;;5035305;28;20485;-77
2022/10/20 02:30:51;;;;;;;34.75;16.27;;;18.60;99.90;;;;;;5031803;28;20363;-76
2022/10/20 02:33:19;;;;;;;36.15;16.73;;;18.50;99.90;;;;;;5049727;28;20123;-77
2022/10/20 02:35:50;;;;;;;31.98;16.73;;;18.50;99.90;;;;;;5034795;28;20048;-77
2022/10/20 02:38:16;;;;;;;41.30;17.70;;;18.50;99.90;;;;;;5036433;28;20075;-76
2022/10/20 02:40:42;;;;;;;37.22;18.27;;;18.50;99.90;;;;;;5036485;28;20021;-77
2022/10/20 02:43:08;;;;;;;32.88;16.45;;;18.40;99.90;;;;;;5035000;28;20029;-77
2022/10/20 02:45:33;;;;;;;35.30;16.80;;;18.40;99.90;;;;;;5036455;28;20033;-76
2022/10/20 02:47:59;;;;;;;36.22;17.25;;;18.40;99.90;;;;;;5034940;28;20017;-77
2022/10/20 02:50:25;;;;;;;37.47;17.25;;;18.40;99.90;;;;;;5036599;28;20079;-77
2022/10/20 02:52:51;;;;;;;43.58;17.23;;;18.40;99.90;;;;;;5034922;28;20013;-76
2022/10/20 02:55:16;;;;;;;41.00;18.45;;;18.40;99.90;;;;;;5031929;28;20490;-76
2022/10/20 02:57:42;;;;;;;33.25;18.45;;;18.40;99.90;;;;;;5032378;28;20068;-76
2022/10/20 03:00:09;;;;;;;38.42;18.33;;;18.40;99.90;;;;;;5029233;28;20044;-76
2022/10/20 03:02:34;;;;;;;41.92;18.75;;;18.40;99.90;;;;;;5035678;28;20025;-76
2022/10/20 03:05:01;;;;;;;41.70;18.20;;;18.40;99.90;;;;;;5039503;28;20040;-76
2022/10/20 03:07:26;;;;;;;37.72;16.77;;;18.40;99.90;;;;;;5037444;28;20482;-76
2022/10/20 03:09:52;;;;;;;43.50;17.23;;;18.40;99.90;;;;;;5034915;28;20018;-76
2022/10/20 03:12:18;;;;;;;47.67;17.98;;;18.40;99.90;;;;;;5037137;28;20421;-76
2022/10/20 03:14:44;;;;;;;30.48;16.23;;;18.40;99.90;;;;;;5038647;28;20120;-76
2022/10/20 03:17:10;;;;;;;37.58;17.75;;;18.40;99.90;;;;;;5039422;28;20017;-77
2022/10/20 03:19:36;;;;;;;34.95;17.65;;;18.40;99.90;;;;;;5039674;28;20022;-76
2022/10/20 03:22:02;;;;;;;35.70;18.35;;;18.40;99.90;;;;;;5031901;28;20056;-76
2022/10/20 03:24:27;;;;;;;38.00;17.67;;;18.30;99.90;;;;;;5039650;28;20127;-76
2022/10/20 03:26:53;;;;;;;34.20;16.73;;;18.30;99.90;;;;;;5039806;28;20018;-77
2022/10/20 03:29:19;;;;;;;33.88;18.10;;;18.20;99.90;;;;;;5038643;28;20150;-76
2022/10/20 03:31:45;;;;;;;28.48;17.08;;;18.20;99.90;;;;;;5037572;28;20100;-76
2022/10/20 03:34:11;;;;;;;30.20;17.17;;;18.20;99.90;;;;;;5039509;28;20401;-77
2022/10/20 03:36:37;;;;;;;33.42;15.63;;;18.10;99.90;;;;;;5038811;28;20024;-76
2022/10/20 03:39:03;;;;;;;30.13;16.88;;;18.10;99.90;;;;;;5039357;28;20108;-77
2022/10/20 03:41:29;;;;;;;31.73;15.68;;;18.00;99.90;;;;;;5054624;28;20527;-76
2022/10/20 03:43:55;;;;;;;36.05;16.45;;;17.90;99.90;;;;;;5038169;28;20060;-76
2022/10/20 03:46:20;;;;;;;30.00;15.18;;;17.90;99.90;;;;;;5037833;28;20104;-76
2022/10/20 03:48:46;;;;;;;28.23;15.35;;;17.90;99.90;;;;;;5037914;28;20030;-76
2022/10/20 03:51:13;;;;;;;33.83;14.90;;;17.80;99.90;;;;;;5039415;28;20052;-75
2022/10/20 03:53:39;;;;;;;31.98;15.93;;;17.80;99.90;;;;;;5039003;28;20052;-76
2022/10/20 03:56:11;;;;;;;32.08;14.90;;;17.80;99.90;;;;;;5044343;28;20017;-77
2022/10/20 03:58:37;;;;;;;28.33;15.82;;;17.70;99.90;;;;;;5034459;28;20024;-77
2022/10/20 04:01:05;;;;;;;27.70;15.52;;;17.70;99.90;;;;;;5035673;28;20460;-76
2022/10/20 04:03:31;;;;;;;35.15;14.98;;;17.70;99.90;;;;;;5030778;28;20068;-76
2022/10/20 04:05:56;;;;;;;30.70;15.30;;;17.70;99.90;;;;;;5037499;28;20026;-76
2022/10/20 04:08:22;;;;;;;34.63;15.90;;;17.60;99.90;;;;;;5039112;28;20036;-76
2022/10/20 04:10:48;;;;;;;46.30;17.00;;;17.60;99.90;;;;;;5038053;28;20045;-76
2022/10/20 04:13:14;;;;;;;34.33;16.98;;;17.70;99.90;;;;;;5039125;28;20017;-76
2022/10/20 04:15:40;;;;;;;39.83;17.55;;;17.70;99.90;;;;;;5036767;28;20030;-77
2022/10/20 04:18:05;;;;;;;37.53;17.48;;;17.80;99.90;;;;;;5038620;28;20025;-76
2022/10/20 04:20:31;;;;;;;33.50;16.10;;;17.90;99.90;;;;;;5054023;28;20043;-76
2022/10/20 04:22:57;;;;;;;30.35;15.38;;;17.90;99.90;;;;;;5038777;28;20029;-78
2022/10/20 04:25:23;;;;;;;34.38;16.30;;;18.00;99.90;;;;;;5038493;28;20010;-78
2022/10/20 04:27:48;;;;;;;27.27;14.52;;;17.90;99.90;;;;;;5037475;28;20032;-77
2022/10/20 04:30:14;;;;;;;31.70;14.40;;;17.90;99.90;;;;;;5036895;28;20031;-77
2022/10/20 04:32:40;;;;;;;29.40;15.93;;;18.00;99.90;;;;;;5038226;28;20100;-76
2022/10/20 04:35:06;;;;;;;31.58;16.60;;;18.00;99.90;;;;;;5038452;28;20500;-76
2022/10/20 04:37:32;;;;;;;35.95;18.73;;;18.10;99.90;;;;;;5029870;28;20026;-76
2022/10/20 04:39:58;;;;;;;45.90;20.13;;;18.10;99.90;;;;;;5038310;28;20029;-77
2022/10/20 04:42:24;;;;;;;39.80;19.40;;;18.20;99.90;;;;;;5036994;28;20025;-78
2022/10/20 04:44:50;;;;;;;47.60;21.55;;;18.40;99.90;;;;;;5040142;28;20425;-77
2022/10/20 04:47:15;;;;;;;48.85;20.85;;;18.50;99.90;;;;;;5044331;28;20013;-79
2022/10/20 04:49:41;;;;;;;42.67;20.70;;;18.60;99.90;;;;;;5038037;28;20021;-77
2022/10/20 04:52:07;;;;;;;48.15;21.83;;;18.80;99.90;;;;;;5038113;28;21086;-78
2022/10/20 04:54:33;;;;;;;38.80;18.55;;;18.80;99.90;;;;;;5037869;28;20049;-78
2022/10/20 04:56:58;;;;;;;41.10;21.27;;;18.90;99.90;;;;;;5037817;28;20036;-81
2022/10/20 04:59:24;;;;;;;32.17;17.85;;;19.00;99.90;;;;;;5051478;28;20036;-79
2022/10/20 05:01:50;;;;;;;41.95;19.88;;;19.00;99.90;;;;;;5035161;28;20025;-80
2022/10/20 05:04:20;;;;;;;40.65;18.23;;;19.00;99.90;;;;;;5036483;28;20571;-81
2022/10/20 05:06:46;;;;;;;33.63;18.88;;;19.00;99.90;;;;;;5025447;28;20017;-79
2022/10/20 05:09:13;;;;;;;33.97;18.45;;;19.00;99.90;;;;;;5036784;28;20026;-79
2022/10/20 05:11:39;;;;;;;35.88;18.92;;;19.10;99.90;;;;;;5036037;28;20144;-80
2022/10/20 05:14:04;;;;;;;43.22;18.98;;;19.10;99.90;;;;;;5036336;28;20053;-78
2022/10/20 05:16:30;;;;;;;40.15;19.08;;;19.00;99.90;;;;;;5050369;28;20025;-81
2022/10/20 05:18:56;;;;;;;34.95;19.42;;;19.10;99.90;;;;;;5051462;28;20018;-78
2022/10/20 05:21:25;;;;;;;38.95;19.90;;;19.10;99.90;;;;;;5036226;28;20029;-80
2022/10/20 05:23:59;;;;;;;37.22;20.00;;;19.10;99.90;;;;;;5035589;28;20018;-81
2022/10/20 05:26:27;;;;;;;39.90;19.05;;;19.00;99.90;;;;;;5035117;28;20083;-80
2022/10/20 05:28:53;;;;;;;43.35;19.20;;;19.10;99.90;;;;;;5035701;28;20170;-80
2022/10/20 05:31:21;;;;;;;31.90;19.33;;;19.10;99.90;;;;;;5035766;28;20021;-80
2022/10/20 05:33:49;;;;;;;37.75;19.98;;;19.10;99.90;;;;;;5036059;28;20018;-79
2022/10/20 05:36:18;;;;;;;43.45;20.02;;;19.10;99.90;;;;;;5033776;28;20018;-79
2022/10/20 05:38:44;;;;;;;38.60;19.83;;;19.10;99.90;;;;;;5036356;28;20068;-80
2022/10/20 05:41:18;;;;;;;35.30;19.45;;;19.10;99.90;;;;;;5051429;28;20057;-81
2022/10/20 05:43:49;;;;;;;51.90;19.80;;;19.00;99.90;;;;;;5033027;28;20033;-78
2022/10/20 05:46:15;;;;;;;44.72;18.90;;;18.90;99.90;;;;;;5036139;28;20018;-81
2022/10/20 05:48:41;;;;;;;33.90;18.83;;;19.00;99.90;;;;;;5035583;28;20029;-80
2022/10/20 05:51:13;;;;;;;41.10;17.95;;;19.00;99.90;;;;;;5035556;28;20029;-80
2022/10/20 05:53:39;;;;;;;37.85;20.75;;;18.90;99.90;;;;;;5036372;28;20521;-80
2022/10/20 05:56:11;;;;;;;34.38;19.45;;;19.00;99.90;;;;;;5036835;28;20057;-81
2022/10/20 05:58:38;;;;;;;41.83;20.38;;;19.00;99.90;;;;;;5034871;28;20025;-82
2022/10/20 06:01:18;;;;;;;40.40;18.23;;;19.00;99.90;;;;;;5036431;28;20025;-80
2022/10/20 06:03:54;;;;;;;45.90;19.52;;;19.00;99.90;;;;;;5036873;28;20485;-81
2022/10/20 06:06:22;;;;;;;36.22;20.05;;;19.00;99.90;;;;;;5037029;28;20032;-82
2022/10/20 06:08:49;;;;;;;30.85;19.17;;;19.00;99.90;;;;;;5036124;28;20677;-81
2022/10/20 06:11:16;;;;;;;35.38;18.83;;;18.90;99.90;;;;;;5051521;28;20037;-81
2022/10/20 06:13:42;;;;;;;37.15;19.40;;;19.00;99.90;;;;;;5035652;28;20018;-80
2022/10/20 06:16:14;;;;;;;39.22;20.63;;;19.00;99.90;;;;;;5035422;28;20029;-79
2022/10/20 06:18:44;;;;;;;49.70;21.67;;;19.00;99.90;;;;;;5035596;28;20017;-80
2022/10/20 06:21:16;;;;;;;48.65;21.77;;;19.00;99.90;;;;;;5035690;28;20025;-81
2022/10/20 06:23:42;;;;;;;41.88;19.85;;;19.10;99.90;;;;;;5035885;28;20029;-78
2022/10/20 06:26:17;;;;;;;39.72;17.48;;;19.10;99.90;;;;;;5033238;28;20104;-80
2022/10/20 06:28:45;;;;;;;37.92;20.42;;;19.00;99.90;;;;;;5031907;28;20022;-79
2022/10/20 06:31:16;;;;;;;37.53;20.35;;;19.10;99.90;;;;;;5032771;28;20022;-80
2022/10/20 06:33:43;;;;;;;38.35;19.80;;;19.20;99.90;;;;;;5035200;28;20394;-82
2022/10/20 06:36:09;;;;;;;47.72;19.80;;;19.20;99.90;;;;;;5038710;28;20036;-81
2022/10/20 06:38:36;;;;;;;39.78;18.25;;;19.10;99.90;;;;;;5034812;28;20400;-81
2022/10/20 06:41:03;;;;;;;40.25;18.77;;;19.20;99.90;;;;;;5037309;28;20083;-78
2022/10/20 06:43:29;;;;;;;41.05;18.10;;;19.20;99.90;;;;;;5038069;28;20029;-82
2022/10/20 06:46:02;;;;;;;40.30;17.60;;;19.20;99.90;;;;;;5039304;28;20013;-81
2022/10/20 06:48:28;;;;;;;43.05;20.85;;;19.10;99.90;;;;;;5038129;28;20031;-81
2022/10/20 06:51:03;;;;;;;37.65;19.58;;;19.10;99.90;;;;;;5039270;28;20386;-79
2022/10/20 06:53:29;;;;;;;34.85;19.63;;;19.20;99.90;;;;;;5039293;28;20033;-80
2022/10/20 06:56:00;;;;;;;43.15;19.75;;;19.10;99.90;;;;;;5040351;28;20026;-82
2022/10/20 06:58:27;;;;;;;42.10;20.02;;;19.10;99.90;;;;;;5040385;28;20036;-80
2022/10/20 07:01:03;;;;;;;43.33;20.25;;;19.10;99.90;;;;;;5034007;28;20057;-79
2022/10/20 07:03:30;;;;;;;49.83;20.10;;;19.10;99.90;;;;;;5029099;28;20045;-80
2022/10/20 07:05:56;;;;;;;52.17;20.20;;;19.20;99.90;;;;;;5039823;28;20071;-81
2022/10/20 07:08:22;;;;;;;39.60;18.30;;;19.10;99.90;;;;;;5035078;28;20394;-80
2022/10/20 07:10:59;;;;;;;39.38;19.48;;;19.10;99.90;;;;;;5039630;28;20045;-80
2022/10/20 07:13:26;;;;;;;43.15;18.50;;;19.20;99.90;;;;;;5041308;28;20032;-81
2022/10/20 07:15:53;;;;;;;35.33;18.90;;;19.20;99.90;;;;;;5037951;28;20520;-80
2022/10/20 07:18:20;;;;;;;36.80;18.92;;;19.20;99.90;;;;;;5033976;28;20018;-80
2022/10/20 07:20:46;;;;;;;44.22;18.05;;;19.20;99.90;;;;;;5036489;28;20060;-81
2022/10/20 07:23:12;;;;;;;42.25;18.58;;;19.30;99.90;;;;;;5038330;28;20030;-81
2022/10/20 07:25:37;;;;;;;36.08;17.45;;;19.30;99.90;;;;;;5037222;28;20095;-81
2022/10/20 07:28:03;;;;;;;49.45;18.73;;;19.30;99.90;;;;;;5035583;28;20022;-79
2022/10/20 07:30:29;;;;;;;44.38;19.33;;;19.30;99.90;;;;;;5037299;28;20022;-81
2022/10/20 07:32:55;;;;;;;38.58;16.58;;;19.30;99.90;;;;;;5038421;28;20025;-82
2022/10/20 07:35:21;;;;;;;39.42;17.25;;;19.30;99.90;;;;;;5039374;28;20034;-81
2022/10/20 07:37:46;;;;;;;32.33;15.13;;;19.30;99.90;;;;;;5035390;28;20498;-80
2022/10/20 07:40:12;;;;;;;38.95;18.45;;;19.30;99.90;;;;;;5037154;28;20032;-81
2022/10/20 07:42:38;;;;;;;34.17;18.23;;;19.30;99.90;;;;;;5037917;28;20022;-81
2022/10/20 07:45:04;;;;;;;46.10;18.92;;;19.30;99.90;;;;;;5038135;28;20026;-81
2022/10/20 07:47:30;;;;;;;45.08;18.80;;;19.30;99.90;;;;;;5037772;28;20026;-81
2022/10/20 07:49:56;;;;;;;45.55;20.33;;;19.30;99.90;;;;;;5036998;28;20032;-80
2022/10/20 07:52:22;;;;;;;33.85;16.23;;;19.30;99.90;;;;;;5037588;28;20017;-81
2022/10/20 07:54:48;;;;;;;41.60;18.30;;;19.30;99.90;;;;;;5033512;28;20025;-80
2022/10/20 07:57:13;;;;;;;43.85;17.45;;;19.30;99.90;;;;;;5037547;28;20049;-79
2022/10/20 07:59:39;;;;;;;41.15;18.65;;;19.30;99.90;;;;;;5037572;28;20064;-80
2022/10/20 08:02:05;;;;;;;37.33;17.02;;;19.30;99.90;;;;;;5037955;28;20029;-80
2022/10/20 08:04:31;;;;;;;42.80;19.13;;;19.30;99.90;;;;;;5038005;28;20021;-79
2022/10/20 08:06:58;;;;;;;33.35;16.38;;;19.30;99.90;;;;;;5038893;28;20504;-80
2022/10/20 08:09:24;;;;;;;52.85;19.40;;;19.40;99.90;;;;;;5037321;28;20025;-80
2022/10/20 08:11:50;;;;;;;44.75;19.30;;;19.40;99.90;;;;;;5038183;28;20175;-80
2022/10/20 08:14:16;;;;;;;28.10;17.77;;;19.40;99.90;;;;;;5039654;28;20033;-82
2022/10/20 08:16:42;;;;;;;45.25;18.65;;;19.40;99.90;;;;;;5034571;28;20029;-81
2022/10/20 08:19:08;;;;;;;52.83;17.55;;;19.40;99.90;;;;;;5040533;28;20061;-81
2022/10/20 08:21:33;;;;;;;40.70;17.52;;;19.40;99.90;;;;;;5050508;28;20034;-81
2022/10/20 08:24:01;;;;;;;38.22;17.30;;;19.50;99.90;;;;;;5036884;28;20071;-81
2022/10/20 08:26:27;;;;;;;35.40;18.13;;;19.50;99.90;;;;;;5034912;28;20094;-81
2022/10/20 08:28:54;;;;;;;45.33;18.08;;;19.50;99.90;;;;;;5035772;28;20021;-81
2022/10/20 08:31:20;;;;;;;34.70;16.92;;;19.50;99.90;;;;;;5032252;28;20016;-82
2022/10/20 08:33:46;;;;;;;42.80;18.35;;;19.50;99.90;;;;;;5037179;28;20504;-81
2022/10/20 08:36:13;;;;;;;38.75;16.85;;;19.50;99.90;;;;;;5035737;28;20503;-81
2022/10/20 08:38:41;;;;;;;41.47;17.27;;;19.50;99.90;;;;;;5032211;28;20018;-81
2022/10/20 08:41:16;;;;;;;44.08;18.25;;;19.50;99.90;;;;;;5032263;28;20071;-81
2022/10/20 08:43:42;;;;;;;38.83;19.23;;;19.50;99.90;;;;;;5035385;28;20021;-81
2022/10/20 08:46:15;;;;;;;42.80;17.25;;;19.50;99.90;;;;;;5041356;28;20497;-82
2022/10/20 08:48:43;;;;;;;36.72;18.33;;;19.50;99.90;;;;;;5034888;28;20044;-82
2022/10/20 08:51:26;;;;;;;35.63;16.95;;;19.50;99.90;;;;;;5037622;28;20018;-82
2022/10/20 08:53:58;;;;;;;34.88;17.13;;;19.60;99.90;;;;;;5031076;28;20017;-80
2022/10/20 08:56:28;;;;;;;39.92;17.23;;;19.60;99.90;;;;;;5029488;28;20031;-81
2022/10/20 08:58:54;;;;;;;43.72;16.65;;;19.60;99.90;;;;;;5034811;28;20029;-81
2022/10/20 09:01:21;;;;;;;43.10;18.05;;;19.70;99.90;;;;;;5034119;28;20026;-81
2022/10/20 09:03:54;;;;;;;29.65;15.75;;;19.70;99.90;;;;;;5036737;28;20511;-81
2022/10/20 09:06:20;;;;;;;40.50;17.88;;;19.80;99.90;;;;;;5037896;28;20039;-82
2022/10/20 09:08:46;;;;;;;32.33;16.13;;;19.80;99.90;;;;;;5035548;28;20048;-82
2022/10/20 09:11:23;;;;;;;45.65;17.02;;;19.90;99.90;;;;;;5033925;28;20037;-82
2022/10/20 09:13:49;;;;;;;34.58;16.55;;;20.00;99.90;;;;;;5036825;28;20056;-82
2022/10/20 09:16:21;;;;;;;26.70;16.77;;;20.00;99.90;;;;;;5031569;28;20056;-82
2022/10/20 09:18:55;;;;;;;39.53;15.48;;;20.00;99.90;;;;;;5035672;28;20025;-81
2022/10/20 09:21:22;;;;;;;33.30;16.20;;;20.10;99.90;;;;;;5033495;28;20131;-81
2022/10/20 09:23:54;;;;;;;36.63;15.52;;;20.10;99.90;;;;;;5032997;28;20026;-81
2022/10/20 09:26:31;;;;;;;26.90;14.43;;;20.10;99.90;;;;;;5035922;28;20018;-82
2022/10/20 09:29:09;;;;;;;36.47;15.02;;;20.20;99.90;;;;;;5019330;28;20017;-82
2022/10/20 09:31:41;;;;;;;35.03;14.35;;;20.30;99.90;;;;;;5042342;28;20397;-81
2022/10/20 09:34:31;;;;;;;37.83;15.25;;;20.30;99.90;;;;;;5036126;28;20021;-82
2022/10/20 09:37:06;;;;;;;33.20;13.73;;;20.40;99.90;;;;;;5035037;28;20553;-82
2022/10/20 09:39:47;;;;;;;35.33;14.18;;;20.40;99.90;;;;;;5036083;28;20029;-82
2022/10/20 09:42:18;;;;;;;31.52;13.85;;;20.50;99.90;;;;;;5032413;28;20029;-81
2022/10/20 09:44:50;;;;;;;30.88;13.15;;;20.60;99.90;;;;;;5033255;28;20026;-81
2022/10/20 09:47:16;;;;;;;31.83;13.75;;;20.70;99.90;;;;;;5036915;28;20120;-81
2022/10/20 09:49:44;;;;;;;30.48;13.55;;;20.80;99.90;;;;;;5034591;28;20477;-81
2022/10/20 09:52:22;;;;;;;26.90;12.57;;;20.80;99.90;;;;;;5064302;28;20029;-81
2022/10/20 09:54:52;;;;;;;34.30;12.50;;;20.90;99.90;;;;;;5033924;28;20092;-82
2022/10/20 09:57:21;;;;;;;30.05;12.93;;;20.90;99.90;;;;;;5033390;28;20033;-81
2022/10/20 09:59:52;;;;;;;26.70;12.15;;;21.00;99.90;;;;;;5034773;28;20029;-81
2022/10/20 10:02:21;;;;;;;31.75;11.90;;;21.00;99.90;;;;;;5034755;28;20047;-81
2022/10/20 10:04:51;;;;;;;23.45;12.13;;;21.00;99.90;;;;;;5035442;28;20440;-81
2022/10/20 10:07:25;;;;;;;35.27;12.43;;;21.00;99.90;;;;;;5035426;28;20017;-82
2022/10/20 10:10:03;;;;;;;32.47;11.40;;;21.00;99.90;;;;;;5026603;28;20025;-82
2022/10/20 10:12:31;;;;;;;29.25;10.45;;;21.00;99.90;;;;;;5031193;28;20038;-80
2022/10/20 10:15:00;;;;;;;28.23;11.35;;;21.00;99.90;;;;;;5030914;28;20026;-80
2022/10/20 10:17:36;;;;;;;25.80;10.38;;;21.00;99.90;;;;;;5032744;28;20036;-80
2022/10/20 10:20:06;;;;;;;20.17;10.30;;;21.10;99.90;;;;;;5034345;28;20035;-81
2022/10/20 10:22:34;;;;;;;29.42;10.55;;;21.20;99.90;;;;;;5033262;28;20064;-81
2022/10/20 10:25:00;;;;;;;22.73;10.15;;;21.40;99.90;;;;;;5033270;28;20033;-80
2022/10/20 10:27:27;;;;;;;32.28;10.38;;;21.50;99.90;;;;;;5050756;28;20029;-80
2022/10/20 10:30:27;;;;;;;31.38;10.50;;;21.60;99.90;;;;;;5032308;28;20025;-80
2022/10/20 10:32:53;;;;;;;29.70;10.50;;;21.60;99.90;;;;;;5032650;28;20386;-82
2022/10/20 10:35:39;;;;;;;34.13;10.88;;;21.70;99.90;;;;;;5028068;28;20087;-80
2022/10/20 10:38:09;;;;;;;26.40;9.80;;;22.00;99.90;;;;;;5034016;28;20026;-80
2022/10/20 10:40:35;;;;;;;27.17;10.00;;;22.20;99.90;;;;;;5035142;28;20103;-81
2022/10/20 10:43:16;;;;;;;22.92;8.68;;;22.20;99.90;;;;;;5034631;28;20030;-79
2022/10/20 10:45:44;;;;;;;21.73;10.25;;;22.20;99.90;;;;;;5033954;28;20025;-80
2022/10/20 10:48:41;;;;;;;24.33;9.35;;;22.20;99.90;;;;;;5031476;28;20018;-81
2022/10/20 10:51:46;;;;;;;18.58;8.43;;;22.40;99.90;;;;;;5032298;28;20053;-80
2022/10/20 10:54:33;;;;;;;26.05;9.23;;;22.50;99.90;;;;;;5033369;28;20544;-78
2022/10/20 10:57:23;;;;;;;22.77;9.63;;;22.60;99.90;;;;;;5030164;28;20034;-82
2022/10/20 10:59:51;;;;;;;26.85;8.80;;;22.60;99.90;;;;;;5024391;28;20029;-81
2022/10/20 11:02:23;;;;;;;27.92;9.15;;;22.50;99.90;;;;;;5034758;28;20029;-81
2022/10/20 11:05:19;;;;;;;25.52;10.25;;;22.50;99.90;;;;;;5035183;28;20406;-81
2022/10/20 11:08:28;;;;;;;23.80;9.10;;;22.30;99.90;;;;;;5033390;28;20473;-82
2022/10/20 11:11:54;;;;;;;21.67;9.60;;;22.20;99.90;;;;;;5031791;28;20397;-82
2022/10/20 11:14:30;;;;;;;24.58;9.05;;;22.20;99.90;;;;;;5019468;28;20579;-81
2022/10/20 11:17:10;;;;;;;25.17;9.82;;;22.10;99.90;;;;;;5014224;28;20026;-82
2022/10/20 11:20:01;;;;;;;21.63;9.13;;;22.00;99.90;;;;;;5019121;28;20083;-82
2022/10/20 11:22:46;;;;;;;18.83;8.88;;;22.00;99.90;;;;;;5038672;28;20025;-81
2022/10/20 11:25:32;;;;;;;30.65;10.77;;;21.90;99.90;;;;;;5037115;28;20524;-81
2022/10/20 11:27:59;;;;;;;22.52;9.18;;;21.90;99.90;;;;;;5050440;28;20024;-82
2022/10/20 11:30:26;;;;;;;27.50;9.82;;;22.00;99.90;;;;;;5053013;28;20025;-82
2022/10/20 11:32:55;;;;;;;22.73;9.15;;;21.90;99.90;;;;;;5038435;28;20018;-80
2022/10/20 11:35:49;;;;;;;29.08;9.65;;;21.90;99.90;;;;;;5054680;28;20049;-82
2022/10/20 11:38:39;;;;;;;23.13;9.20;;;21.90;99.90;;;;;;5037482;28;20575;-84
2022/10/20 11:41:19;;;;;;;30.80;9.80;;;21.90;99.90;;;;;;5033693;28;20124;-82
2022/10/20 11:44:07;;;;;;;28.05;10.73;;;21.90;99.90;;;;;;5031708;28;20652;-82
2022/10/20 11:46:59;;;;;;;25.88;9.50;;;21.90;99.90;;;;;;5046016;28;20032;-82
2022/10/20 11:49:25;;;;;;;31.17;9.48;;;21.80;99.90;;;;;;5037731;28;20029;-83
2022/10/20 11:52:20;;;;;;;24.10;9.32;;;21.80;99.90;;;;;;5038204;28;20017;-81
2022/10/20 11:55:23;;;;;;;25.48;10.32;;;21.80;99.90;;;;;;5037569;28;20023;-82
2022/10/20 11:57:52;;;;;;;24.10;9.20;;;21.80;99.90;;;;;;5035975;28;20032;-83
2022/10/20 12:00:44;;;;;;;17.77;9.10;;;21.80;99.90;;;;;;5035483;28;20057;-82
2022/10/20 12:03:37;;;;;;;22.92;8.68;;;21.90;99.90;;;;;;5037853;28;20021;-82
2022/10/20 12:06:24;;;;;;;18.60;7.80;;;21.90;99.90;;;;;;5037871;28;20032;-82
2022/10/20 12:09:12;;;;;;;30.60;10.73;;;21.90;99.90;;;;;;5038158;28;20025;-81
2022/10/20 12:12:12;;;;;;;22.50;8.80;;;21.90;99.90;;;;;;5035146;28;20413;-81
2022/10/20 12:14:42;;;;;;;26.08;9.40;;;21.80;99.90;;;;;;5043666;28;20022;-82
2022/10/20 12:17:40;;;;;;;21.93;9.53;;;21.80;99.90;;;;;;5033492;28;20030;-83
2022/10/20 12:20:21;;;;;;;21.88;8.35;;;21.90;99.90;;;;;;5036071;28;20456;-80
2022/10/20 12:22:53;;;;;;;19.10;8.25;;;21.80;99.90;;;;;;5033634;28;20563;-83
2022/10/20 12:25:24;;;;;;;21.95;8.25;;;21.70;99.90;;;;;;5035931;28;20025;-80
2022/10/20 12:28:18;;;;;;;25.90;7.75;;;21.70;99.90;;;;;;5036211;28;20441;-82
2022/10/20 12:31:02;;;;;;;29.17;8.93;;;21.70;99.90;;;;;;5036285;28;20021;-81
2022/10/20 12:33:58;;;;;;;27.15;10.13;;;21.70;99.90;;;;;;5036442;28;20030;-82
2022/10/20 12:36:42;;;;;;;19.50;8.25;;;21.60;99.90;;;;;;5034967;28;20464;-83
2022/10/20 12:39:10;;;;;;;24.00;7.47;;;21.60;99.90;;;;;;5034850;28;20113;-80
2022/10/20 12:41:45;;;;;;;22.25;9.68;;;21.50;99.90;;;;;;5033663;28;20031;-81
2022/10/20 12:44:18;;;;;;;25.90;8.52;;;21.50;99.90;;;;;;5036010;28;20525;-81
2022/10/20 12:47:20;;;;;;;24.70;8.60;;;21.50;99.90;;;;;;5035533;28;20024;-82
2022/10/20 12:50:09;;;;;;;24.20;9.18;;;21.40;99.90;;;;;;5025020;28;20026;-81